Palos Hills, Illinois
Current Conditions -  °F | °C
As of 1:53 PM on Thursday 23 Oct 2014 (Local Time) from KMDW Reporting Station
Broken Clouds Broken Clouds  
Wind Chill: 62°   Ceiling: 20000
Heat Index: 62°   Visibility: 10mi
Dew Point: 41°   Wind: 9mph
Humidity: 46%   Direction: 180°S
Pressure: 30.11"   Gusts: NA
Location:  41.7°N, 87.83°W
Report Text: KMDW 231853Z 18008KT 10SM BKN200 17/05 A3011 RMK AO2 SLP199 T01670050
Loading
Personal Weather Stations






























Interactive Weather Map New forecast layout! Learn more

10-Day Weather Forecast

Advertisements
Track Severe Weather on mobile